createdAt,value
2022-11-23T00:01:27.922Z,64.49
2022-11-23T00:03:57.919Z,64.80
2022-11-23T00:06:25.946Z,64.99
2022-11-23T00:08:53.948Z,64.98
2022-11-23T00:11:22.633Z,64.70
2022-11-23T00:13:49.776Z,64.95
2022-11-23T00:16:26.072Z,64.48
2022-11-23T00:18:59.798Z,64.30
2022-11-23T00:21:30.078Z,64.44
2022-11-23T00:23:57.323Z,64.72
2022-11-23T00:26:24.414Z,64.92
2022-11-23T00:28:51.468Z,64.37
2022-11-23T00:31:21.012Z,64.57
2022-11-23T00:33:53.372Z,64.87
2022-11-23T00:36:21.972Z,64.64
2022-11-23T00:38:50.031Z,64.62
2022-11-23T00:41:23.275Z,65.04
2022-11-23T00:43:50.474Z,64.76
2022-11-23T00:46:26.053Z,64.31
2022-11-23T00:48:55.257Z,64.58
2022-11-23T00:51:30.176Z,64.36
2022-11-23T00:53:57.615Z,64.10
2022-11-23T00:56:26.888Z,64.41
2022-11-23T00:58:56.300Z,64.01
2022-11-23T01:01:27.444Z,64.11
2022-11-23T01:03:58.174Z,64.31
2022-11-23T01:06:36.521Z,64.18
2022-11-23T01:09:13.277Z,64.08
2022-11-23T01:11:40.184Z,64.02
2022-11-23T01:14:07.183Z,64.19
2022-11-23T01:16:37.919Z,64.10
2022-11-23T01:19:08.547Z,63.86
2022-11-23T01:21:36.406Z,64.02
2022-11-23T01:24:09.642Z,64.23
2022-11-23T01:26:38.751Z,63.76
2022-11-23T01:29:05.669Z,64.02
2022-11-23T01:31:32.569Z,63.88
2022-11-23T01:34:02.193Z,63.39
2022-11-23T01:36:32.626Z,63.46
2022-11-23T01:39:01.536Z,63.72
2022-11-23T01:41:38.256Z,63.77
2022-11-23T01:44:27.422Z,63.87
2022-11-23T01:46:57.878Z,63.98
2022-11-23T01:49:26.217Z,64.17
2022-11-23T01:51:57.895Z,64.21
2022-11-23T01:54:31.472Z,64.08
2022-11-23T01:57:07.792Z,64.26
2022-11-23T01:59:36.040Z,64.14
2022-11-23T02:02:03.858Z,63.83
2022-11-23T02:04:35.284Z,64.18
2022-11-23T02:07:03.934Z,63.70
2022-11-23T02:09:33.921Z,63.89
2022-11-23T02:12:01.244Z,64.27
2022-11-23T02:14:28.499Z,63.73
2022-11-23T02:16:58.933Z,63.66
2022-11-23T02:19:57.963Z,64.00
2022-11-23T02:22:59.425Z,64.17
2022-11-23T02:25:40.457Z,64.35
2022-11-23T02:28:07.710Z,64.01
2022-11-23T02:30:36.672Z,64.35
2022-11-23T02:33:07.192Z,64.08
2022-11-23T02:35:34.598Z,64.42
2022-11-23T02:38:04.632Z,64.49
2022-11-23T02:40:35.808Z,64.67
2022-11-23T02:43:03.382Z,64.26
2022-11-23T02:45:46.446Z,64.43
2022-11-23T02:48:13.323Z,64.41
2022-11-23T02:50:40.202Z,64.62
2022-11-23T02:53:08.351Z,64.69
2022-11-23T02:55:35.229Z,64.57
2022-11-23T02:58:03.338Z,64.44
2022-11-23T03:00:30.769Z,64.36
2022-11-23T03:03:01.431Z,64.27
2022-11-23T03:05:28.713Z,64.11
2022-11-23T03:07:55.795Z,64.08
2022-11-23T03:10:22.695Z,64.02
2022-11-23T03:12:55.716Z,64.28
2022-11-23T03:15:25.309Z,63.64
2022-11-23T03:17:52.893Z,64.12
2022-11-23T03:20:20.813Z,64.01
2022-11-23T03:22:50.307Z,64.32
2022-11-23T03:25:18.979Z,64.59
2022-11-23T03:27:49.015Z,64.53
2022-11-23T03:30:16.043Z,64.22
2022-11-23T03:32:43.529Z,64.35
2022-11-23T03:35:10.446Z,64.14
2022-11-23T03:37:49.567Z,64.73
2022-11-23T03:40:16.589Z,64.42
2022-11-23T03:43:21.849Z,64.61
2022-11-23T03:45:48.815Z,64.61
2022-11-23T03:48:16.520Z,64.53
2022-11-23T03:50:44.980Z,64.62
2022-11-23T03:53:12.458Z,64.44
2022-11-23T03:55:39.456Z,64.68
2022-11-23T03:58:06.456Z,64.63
2022-11-23T04:00:35.877Z,64.55
2022-11-23T04:03:03.622Z,64.40
2022-11-23T04:05:48.895Z,64.54
2022-11-23T04:08:45.398Z,64.61
2022-11-23T04:11:19.341Z,64.91
2022-11-23T04:13:48.724Z,64.86
2022-11-23T04:16:15.790Z,64.69
2022-11-23T04:18:42.745Z,64.89
2022-11-23T04:21:10.937Z,64.88
2022-11-23T04:23:38.003Z,64.88
2022-11-23T04:26:08.086Z,64.93
2022-11-23T04:28:42.208Z,65.18
2022-11-23T04:31:09.383Z,64.61
2022-11-23T04:33:48.636Z,64.76
2022-11-23T04:36:17.965Z,64.80
2022-11-23T04:38:44.873Z,64.73
2022-11-23T04:41:15.564Z,64.94
2022-11-23T04:43:42.655Z,64.61
2022-11-23T04:46:11.591Z,64.54
2022-11-23T04:48:38.499Z,64.46
2022-11-23T04:51:05.616Z,65.03
2022-11-23T04:53:37.071Z,64.51
2022-11-23T04:56:05.109Z,64.75
2022-11-23T04:58:36.616Z,64.80
2022-11-23T05:01:04.974Z,64.70
2022-11-23T05:03:36.779Z,64.54
2022-11-23T05:06:07.541Z,64.21
2022-11-23T05:08:39.781Z,64.17
2022-11-23T05:11:21.514Z,64.32
2022-11-23T05:13:50.134Z,64.01
2022-11-23T05:16:17.159Z,64.21
2022-11-23T05:18:44.294Z,64.38
2022-11-23T05:21:11.724Z,64.13
2022-11-23T05:23:39.888Z,64.14
2022-11-23T05:26:06.883Z,63.87
2022-11-23T05:28:41.709Z,64.06
2022-11-23T05:31:12.970Z,64.17
2022-11-23T05:33:40.807Z,64.11
2022-11-23T05:36:09.646Z,63.83
2022-11-23T05:38:41.287Z,64.14
2022-11-23T05:41:16.254Z,64.12
2022-11-23T05:43:44.525Z,64.09
2022-11-23T05:46:16.522Z,64.07
2022-11-23T05:48:45.230Z,63.72
2022-11-23T05:51:13.217Z,63.66
2022-11-23T05:53:44.297Z,63.81
2022-11-23T05:56:23.981Z,63.67
2022-11-23T05:59:08.043Z,63.88
2022-11-23T06:01:37.408Z,63.67
2022-11-23T06:04:06.827Z,63.58
2022-11-23T06:06:39.468Z,63.33
2022-11-23T06:09:06.857Z,63.48
2022-11-23T06:11:36.071Z,63.63
2022-11-23T06:14:14.192Z,63.55
2022-11-23T06:16:44.472Z,63.83
2022-11-23T06:19:26.845Z,63.52
2022-11-23T06:21:54.448Z,63.32
2022-11-23T06:24:25.910Z,63.31
2022-11-23T06:27:18.407Z,63.37
2022-11-23T06:29:48.156Z,63.39
2022-11-23T06:32:16.211Z,63.52
2022-11-23T06:34:43.341Z,63.33
2022-11-23T06:37:10.532Z,63.41
2022-11-23T06:39:37.656Z,63.51
2022-11-23T06:42:36.600Z,63.71
2022-11-23T06:44:53.562Z,63.55
2022-11-23T06:47:26.454Z,63.57
2022-11-23T06:49:55.329Z,64.17
2022-11-23T06:52:27.103Z,63.85
2022-11-23T06:54:54.590Z,64.32
2022-11-23T06:57:23.567Z,63.82
2022-11-23T06:59:50.903Z,63.99
2022-11-23T07:02:23.628Z,64.04
2022-11-23T07:04:52.903Z,64.10
2022-11-23T07:07:20.334Z,63.93
2022-11-23T07:09:57.524Z,63.81
2022-11-23T07:12:32.345Z,63.55
2022-11-23T07:15:00.819Z,63.93
2022-11-23T07:17:31.942Z,63.97
2022-11-23T07:19:58.832Z,64.12
2022-11-23T07:22:25.749Z,64.02
2022-11-23T07:24:52.673Z,63.85
2022-11-23T07:27:20.517Z,64.07
2022-11-23T07:29:47.474Z,63.73
2022-11-23T07:32:15.545Z,63.84
2022-11-23T07:34:42.867Z,64.09
2022-11-23T07:37:10.166Z,64.00
2022-11-23T07:40:00.522Z,63.77
2022-11-23T07:42:35.720Z,63.63
2022-11-23T07:45:08.057Z,63.96
2022-11-23T07:47:37.697Z,63.74
2022-11-23T07:50:07.131Z,64.16
2022-11-23T07:52:35.730Z,63.91
2022-11-23T07:55:02.868Z,63.71
2022-11-23T07:57:29.794Z,63.86
2022-11-23T07:59:56.876Z,63.89
2022-11-23T08:02:23.942Z,63.59
2022-11-23T08:04:50.869Z,63.65
2022-11-23T08:07:17.793Z,63.39
2022-11-23T08:09:44.712Z,63.67
2022-11-23T08:12:11.643Z,63.73
2022-11-23T08:14:38.532Z,63.71
2022-11-23T08:17:05.780Z,63.78
2022-11-23T08:19:32.656Z,63.35
2022-11-23T08:21:59.530Z,63.43
2022-11-23T08:24:26.467Z,63.51
2022-11-23T08:26:53.363Z,63.03
2022-11-23T08:29:20.658Z,62.74
2022-11-23T08:31:47.555Z,62.74
2022-11-23T08:34:14.489Z,62.78
2022-11-23T08:36:41.396Z,62.23
2022-11-23T08:39:11.078Z,62.51
2022-11-23T08:41:38.368Z,62.58
2022-11-23T08:44:05.619Z,62.50
2022-11-23T08:46:32.485Z,61.73
2022-11-23T08:48:59.357Z,62.20
2022-11-23T08:51:26.227Z,62.33
2022-11-23T08:53:53.292Z,62.38
2022-11-23T08:56:20.362Z,62.31
2022-11-23T08:58:47.377Z,62.07
2022-11-23T09:01:16.988Z,62.05
2022-11-23T09:03:44.994Z,61.98
2022-11-23T09:06:12.379Z,61.63
2022-11-23T09:08:39.503Z,61.77
2022-11-23T09:11:10.250Z,61.70
2022-11-23T09:13:38.214Z,61.83
2022-11-23T09:16:07.474Z,62.17
2022-11-23T09:18:35.787Z,62.00
2022-11-23T09:21:05.057Z,62.08
2022-11-23T09:23:34.433Z,61.99
2022-11-23T09:26:05.103Z,62.29
2022-11-23T09:28:33.263Z,62.26
2022-11-23T09:31:04.329Z,62.21
2022-11-23T09:33:31.213Z,62.49
2022-11-23T09:36:03.421Z,62.42
2022-11-23T09:38:55.207Z,62.45
2022-11-23T09:41:45.874Z,62.45
2022-11-23T09:44:41.982Z,62.31
2022-11-23T09:47:48.669Z,62.36
2022-11-23T09:50:35.023Z,62.37
2022-11-23T09:53:11.299Z,62.92
2022-11-23T09:55:48.399Z,62.56
2022-11-23T09:58:19.127Z,62.79
2022-11-23T10:01:13.596Z,62.61
2022-11-23T10:03:48.484Z,62.35
2022-11-23T10:06:25.767Z,62.46
2022-11-23T10:09:18.858Z,62.67
2022-11-23T10:12:12.971Z,62.42
2022-11-23T10:15:20.547Z,62.44
2022-11-23T10:18:22.273Z,62.15
2022-11-23T10:21:20.781Z,62.10
2022-11-23T10:24:16.468Z,62.19
2022-11-23T10:26:44.825Z,62.10
2022-11-23T10:29:28.829Z,62.12
2022-11-23T10:31:57.563Z,61.97
2022-11-23T10:34:41.432Z,61.71
2022-11-23T10:37:13.720Z,61.41
2022-11-23T10:39:40.607Z,61.41
2022-11-23T10:42:42.613Z,61.45
2022-11-23T10:45:23.282Z,61.22
2022-11-23T10:47:59.371Z,61.53
2022-11-23T10:50:41.033Z,61.81
2022-11-23T10:53:26.293Z,61.37
2022-11-23T10:55:58.061Z,61.39
2022-11-23T10:58:43.480Z,61.59
2022-11-23T11:01:26.345Z,61.59
2022-11-23T11:03:56.127Z,61.35
2022-11-23T11:06:29.339Z,61.25
2022-11-23T11:09:04.567Z,61.30
2022-11-23T11:11:45.937Z,61.36
2022-11-23T11:14:19.914Z,61.34
2022-11-23T11:17:00.698Z,61.33
2022-11-23T11:19:32.403Z,61.02
2022-11-23T11:22:02.151Z,61.45
2022-11-23T11:24:47.511Z,61.07
2022-11-23T11:27:20.752Z,61.38
2022-11-23T11:29:57.938Z,61.44
2022-11-23T11:32:58.676Z,61.01
2022-11-23T11:35:28.796Z,61.29
2022-11-23T11:38:05.664Z,61.22
2022-11-23T11:40:46.362Z,61.29
2022-11-23T11:43:39.985Z,61.18
2022-11-23T11:46:32.362Z,61.34
2022-11-23T11:49:16.349Z,61.16
2022-11-23T11:52:02.543Z,61.20
2022-11-23T11:55:01.330Z,61.25
2022-11-23T11:57:42.456Z,61.34
2022-11-23T12:00:19.687Z,61.45
2022-11-23T12:03:12.611Z,61.64
2022-11-23T12:05:54.585Z,61.64
2022-11-23T12:08:51.566Z,61.70
2022-11-23T12:11:19.600Z,61.66
2022-11-23T12:13:46.980Z,61.28
2022-11-23T12:16:28.025Z,61.30
2022-11-23T12:19:19.391Z,61.32
2022-11-23T12:22:34.373Z,61.48
2022-11-23T12:25:19.809Z,61.31
2022-11-23T12:27:57.660Z,61.22
2022-11-23T12:31:12.487Z,61.39
2022-11-23T12:34:10.265Z,61.32
2022-11-23T12:36:49.806Z,61.22
2022-11-23T12:39:54.544Z,61.06
2022-11-23T12:42:37.707Z,61.05
2022-11-23T12:45:57.065Z,61.19
2022-11-23T12:48:36.960Z,61.27
2022-11-23T12:51:23.638Z,61.01
2022-11-23T12:54:07.647Z,61.21
2022-11-23T12:56:56.741Z,61.01
2022-11-23T12:59:26.857Z,60.99
2022-11-23T13:02:03.752Z,60.55
2022-11-23T13:04:58.707Z,60.26
2022-11-23T13:08:22.224Z,60.25
2022-11-23T13:11:11.721Z,60.34
2022-11-23T13:14:24.374Z,60.35
2022-11-23T13:17:14.755Z,60.44
2022-11-23T13:20:33.253Z,59.97
2022-11-23T13:23:01.426Z,59.99
2022-11-23T13:25:29.729Z,59.87
2022-11-23T13:28:02.559Z,59.98
2022-11-23T13:30:59.039Z,59.55
2022-11-23T13:33:26.600Z,59.95
2022-11-23T13:36:03.807Z,59.68
2022-11-23T13:38:43.563Z,59.87
2022-11-23T13:41:44.093Z,59.90
2022-11-23T13:44:25.470Z,60.11
2022-11-23T13:47:16.294Z,60.02
2022-11-23T13:49:48.343Z,60.08
2022-11-23T13:52:21.295Z,60.07
2022-11-23T13:55:11.252Z,60.22
2022-11-23T13:57:40.184Z,60.39
2022-11-23T14:00:45.309Z,60.40
2022-11-23T14:03:43.335Z,60.03
2022-11-23T14:06:41.264Z,60.27
2022-11-23T14:09:32.518Z,60.18
2022-11-23T14:12:11.436Z,59.90
2022-11-23T14:14:45.610Z,59.99
2022-11-23T14:17:46.082Z,60.07
2022-11-23T14:20:47.415Z,60.25
2022-11-23T14:23:42.243Z,60.32
2022-11-23T14:26:52.145Z,60.11
2022-11-23T14:29:48.159Z,60.20
2022-11-23T14:32:47.895Z,60.08
2022-11-23T14:35:49.294Z,60.06
2022-11-23T14:38:50.120Z,60.15
2022-11-23T14:41:22.160Z,60.44
2022-11-23T14:43:50.053Z,60.41
2022-11-23T14:46:24.822Z,60.49
2022-11-23T14:48:52.917Z,60.38
2022-11-23T14:51:24.034Z,60.37
2022-11-23T14:53:56.665Z,60.03
2022-11-23T14:56:44.057Z,60.50
2022-11-23T14:59:27.388Z,60.56
2022-11-23T15:02:05.338Z,60.53
2022-11-23T15:04:38.269Z,60.46
2022-11-23T15:07:20.689Z,60.63
2022-11-23T15:10:17.298Z,60.82
2022-11-23T15:12:48.876Z,60.64
2022-11-23T15:15:25.269Z,60.69
2022-11-23T15:17:57.698Z,60.84
2022-11-23T15:20:33.653Z,60.70
2022-11-23T15:23:02.246Z,60.55
2022-11-23T15:25:29.886Z,60.63
2022-11-23T15:27:56.847Z,60.64
2022-11-23T15:30:28.919Z,60.66
2022-11-23T15:33:05.550Z,60.64
2022-11-23T15:35:36.617Z,60.69
2022-11-23T15:38:07.854Z,60.59
2022-11-23T15:40:37.409Z,60.56
2022-11-23T15:43:04.571Z,60.55
2022-11-23T15:46:02.297Z,60.75
2022-11-23T15:48:34.209Z,60.34
2022-11-23T15:51:09.403Z,60.67
2022-11-23T15:53:50.149Z,60.54
2022-11-23T15:56:31.488Z,60.54
2022-11-23T15:59:02.421Z,60.42
2022-11-23T16:01:29.913Z,60.55
2022-11-23T16:04:04.548Z,60.53
2022-11-23T16:06:36.729Z,60.45
2022-11-23T16:09:56.788Z,61.00
2022-11-23T16:12:35.541Z,60.75
2022-11-23T16:15:27.342Z,60.78
2022-11-23T16:17:54.318Z,60.61
2022-11-23T16:20:24.877Z,60.85
2022-11-23T16:22:53.866Z,60.88
2022-11-23T16:25:35.326Z,60.78
2022-11-23T16:28:15.425Z,60.80
2022-11-23T16:30:46.233Z,60.73
2022-11-23T16:33:19.832Z,60.63
2022-11-23T16:35:47.838Z,60.89
2022-11-23T16:38:14.743Z,60.95
2022-11-23T16:40:43.197Z,60.88
2022-11-23T16:43:14.910Z,60.93
2022-11-23T16:45:47.352Z,61.07
2022-11-23T16:48:26.399Z,60.97
2022-11-23T16:50:57.404Z,60.92
2022-11-23T16:53:30.038Z,61.10
2022-11-23T16:55:58.659Z,61.10
2022-11-23T16:58:34.051Z,61.28
2022-11-23T17:01:04.390Z,61.28
2022-11-23T17:03:32.997Z,61.49
2022-11-23T17:05:59.863Z,61.58
2022-11-23T17:08:26.745Z,61.66
2022-11-23T17:10:53.671Z,61.73
2022-11-23T17:13:27.340Z,62.00
2022-11-23T17:15:55.163Z,62.04
2022-11-23T17:18:22.536Z,62.35
2022-11-23T17:20:49.655Z,62.25
2022-11-23T17:23:17.013Z,62.39
2022-11-23T17:25:44.003Z,62.49
2022-11-23T17:28:17.492Z,62.94
2022-11-23T17:30:44.499Z,62.71
2022-11-23T17:33:12.377Z,63.03
2022-11-23T17:35:40.129Z,63.49
2022-11-23T17:38:13.704Z,64.03
2022-11-23T17:40:40.613Z,63.93
2022-11-23T17:43:07.571Z,64.03
2022-11-23T17:45:34.554Z,64.14
2022-11-23T17:48:03.543Z,63.87
2022-11-23T17:50:30.757Z,64.11
2022-11-23T17:52:57.716Z,63.54
2022-11-23T17:55:24.888Z,63.58
2022-11-23T17:57:51.763Z,63.45
2022-11-23T18:00:23.573Z,63.41
2022-11-23T18:02:52.034Z,63.40
2022-11-23T18:05:21.831Z,63.34
2022-11-23T18:07:50.745Z,63.41
2022-11-23T18:10:17.750Z,63.53
2022-11-23T18:12:45.580Z,63.26
2022-11-23T18:15:12.678Z,63.74
2022-11-23T18:17:40.248Z,63.50
2022-11-23T18:20:08.313Z,63.75
2022-11-23T18:22:35.705Z,63.81
2022-11-23T18:25:02.578Z,63.75
2022-11-23T18:27:29.827Z,63.67
2022-11-23T18:29:57.106Z,63.66
2022-11-23T18:32:24.240Z,63.32
2022-11-23T18:34:51.162Z,63.72
2022-11-23T18:37:18.101Z,63.66
2022-11-23T18:39:44.969Z,63.84
2022-11-23T18:42:11.876Z,63.65
2022-11-23T18:44:38.746Z,64.11
2022-11-23T18:47:05.708Z,63.89
2022-11-23T18:49:32.817Z,63.57
2022-11-23T18:51:59.914Z,63.80
2022-11-23T18:54:26.776Z,63.75
2022-11-23T18:56:53.667Z,63.84
2022-11-23T18:59:49.835Z,63.54
2022-11-23T19:02:10.458Z,63.68
2022-11-23T19:04:38.688Z,63.61
2022-11-23T19:07:06.152Z,63.41
2022-11-23T19:09:34.548Z,63.62
2022-11-23T19:12:01.784Z,64.01
2022-11-23T19:14:28.685Z,64.01
2022-11-23T19:16:55.562Z,64.16
2022-11-23T19:19:22.423Z,64.05
2022-11-23T19:21:49.460Z,64.06
2022-11-23T19:24:16.364Z,64.14
2022-11-23T19:26:43.251Z,64.18
2022-11-23T19:29:10.196Z,64.00
2022-11-23T19:31:37.188Z,63.79
2022-11-23T19:34:06.263Z,63.85
2022-11-23T19:36:36.423Z,63.88
2022-11-23T19:39:05.697Z,64.04
2022-11-23T19:41:33.048Z,64.28
2022-11-23T19:44:00.951Z,64.35
2022-11-23T19:46:30.044Z,63.88
2022-11-23T19:48:58.016Z,64.17
2022-11-23T19:51:26.103Z,64.35
2022-11-23T19:53:54.705Z,64.43
2022-11-23T19:56:24.010Z,64.48
2022-11-23T19:58:53.097Z,64.58
2022-11-23T20:01:22.669Z,64.63
2022-11-23T20:03:53.581Z,64.67
2022-11-23T20:06:26.876Z,64.82
2022-11-23T20:08:55.518Z,64.71
2022-11-23T20:11:23.329Z,64.80
2022-11-23T20:13:50.540Z,65.06
2022-11-23T20:16:19.820Z,64.74
2022-11-23T20:18:49.691Z,64.71
2022-11-23T20:21:19.330Z,64.96
2022-11-23T20:23:47.767Z,65.52
2022-11-23T20:26:19.197Z,65.13
2022-11-23T20:28:51.841Z,65.46
2022-11-23T20:31:23.407Z,65.16
2022-11-23T20:33:51.359Z,65.28
2022-11-23T20:36:34.875Z,65.51
2022-11-23T20:39:05.847Z,65.40
2022-11-23T20:41:35.319Z,65.29
2022-11-23T20:44:14.396Z,65.58
2022-11-23T20:49:29.933Z,65.70
2022-11-23T20:51:57.033Z,66.05
2022-11-23T20:54:24.064Z,65.93
2022-11-23T20:56:50.934Z,65.63
2022-11-23T20:59:19.636Z,66.01
2022-11-23T21:01:46.759Z,65.67
2022-11-23T21:04:13.719Z,65.54
2022-11-23T21:06:40.700Z,65.81
2022-11-23T21:09:11.497Z,65.55
2022-11-23T21:11:57.141Z,65.81
2022-11-23T21:14:27.895Z,65.78
2022-11-23T21:17:01.230Z,65.61
2022-11-23T21:19:29.668Z,65.30
2022-11-23T21:21:58.754Z,65.56
2022-11-23T21:24:25.946Z,65.49
2022-11-23T21:26:52.843Z,65.43
2022-11-23T21:29:20.044Z,65.46
2022-11-23T21:31:48.583Z,65.65
2022-11-23T21:34:20.861Z,65.80
2022-11-23T21:36:48.471Z,65.56
2022-11-23T21:39:15.848Z,65.91
2022-11-23T21:41:43.346Z,65.59
2022-11-23T21:44:11.222Z,65.52
2022-11-23T21:46:40.542Z,65.58
2022-11-23T21:49:08.366Z,65.20
2022-11-23T21:51:36.753Z,65.18
2022-11-23T21:54:06.658Z,64.94
2022-11-23T21:56:33.838Z,64.80
2022-11-23T21:59:00.784Z,64.99
2022-11-23T22:01:33.322Z,64.82
2022-11-23T22:04:15.663Z,64.97
2022-11-23T22:06:45.022Z,65.29
2022-11-23T22:09:13.287Z,65.52
2022-11-23T22:11:42.957Z,65.65
2022-11-23T22:14:15.795Z,65.28
2022-11-23T22:16:45.894Z,65.35
2022-11-23T22:19:15.102Z,65.48
2022-11-23T22:21:44.422Z,65.17
2022-11-23T22:24:14.809Z,65.08
2022-11-23T22:26:42.820Z,64.93
2022-11-23T22:29:09.959Z,65.17
2022-11-23T22:31:37.531Z,65.18
2022-11-23T22:34:08.601Z,65.01
2022-11-23T22:36:35.588Z,64.98
2022-11-23T22:39:05.679Z,65.14
2022-11-23T22:41:36.579Z,64.83
2022-11-23T22:44:06.453Z,64.98
2022-11-23T22:46:33.582Z,65.11
2022-11-23T22:49:01.436Z,65.15
2022-11-23T22:51:29.653Z,65.24
2022-11-23T22:53:58.842Z,65.15
2022-11-23T22:56:26.788Z,64.95
2022-11-23T22:58:53.707Z,64.91
2022-11-23T23:01:38.722Z,64.84
2022-11-23T23:04:05.677Z,65.02
2022-11-23T23:06:35.994Z,64.81
2022-11-23T23:09:06.547Z,65.29
2022-11-23T23:11:35.488Z,64.74
2022-11-23T23:14:02.857Z,64.89
2022-11-23T23:16:29.971Z,64.99
2022-11-23T23:18:58.256Z,64.82
2022-11-23T23:21:26.938Z,64.76
2022-11-23T23:23:58.413Z,64.85
2022-11-23T23:26:27.150Z,65.11
2022-11-23T23:28:58.039Z,65.37
2022-11-23T23:31:25.880Z,64.77
2022-11-23T23:33:55.599Z,65.17
2022-11-23T23:36:23.897Z,65.30
2022-11-23T23:38:51.465Z,64.92
2022-11-23T23:41:18.525Z,65.01
2022-11-23T23:43:47.883Z,65.11
2022-11-23T23:46:14.840Z,64.92
2022-11-23T23:48:41.851Z,64.99
2022-11-23T23:51:18.025Z,64.84
2022-11-23T23:53:46.046Z,65.06
2022-11-23T23:56:23.584Z,65.28
2022-11-23T23:58:50.945Z,65.22
